Time,TemperatureF,DewpointF,PressureIn,WindDirection,WindDirectionDegrees,WindSpeedMPH,WindSpeedGustMPH,Humidity,HourlyPrecipIn,Conditions,Clouds,dailyrainin,SoftwareType,DateUTC
2013-06-25 00:00:00,64.9,62.8,30.14,SE,136,0.0,0.0,93,0.00,,,0.00,Wunderground v.1.15,2013-06-25 04:00:00,
2013-06-25 00:05:00,64.9,62.8,30.14,SE,136,0.0,0.0,93,0.00,,,0.00,Wunderground v.1.15,2013-06-25 04:05:00,
2013-06-25 00:10:00,64.8,62.7,30.14,SE,136,0.0,0.0,93,0.00,,,0.00,Wunderground v.1.15,2013-06-25 04:10:00,
2013-06-25 00:15:00,64.7,62.6,30.14,SE,136,0.0,0.0,93,0.00,,,0.00,Wunderground v.1.15,2013-06-25 04:15:00,
2013-06-25 00:20:00,64.5,62.4,30.14,SE,136,0.0,0.0,93,0.00,,,0.00,Wunderground v.1.15,2013-06-25 04:20:00,
2013-06-25 00:30:00,64.4,62.3,30.13,SE,136,0.0,0.0,93,0.00,,,0.00,Wunderground v.1.15,2013-06-25 04:30:00,
2013-06-25 00:35:00,64.2,62.1,30.13,SE,136,0.0,0.0,93,0.00,,,0.00,Wunderground v.1.15,2013-06-25 04:35:00,
2013-06-25 00:40:00,64.1,62.0,30.13,SE,136,0.0,0.0,93,0.00,,,0.00,Wunderground v.1.15,2013-06-25 04:40:00,
2013-06-25 00:50:00,64.1,62.0,30.13,SE,136,0.0,0.0,93,0.00,,,0.00,Wunderground v.1.15,2013-06-25 04:50:00,
2013-06-25 00:55:00,64.0,61.9,30.13,SE,136,0.0,0.0,93,0.00,,,0.00,Wunderground v.1.15,2013-06-25 04:55:00,
2013-06-25 01:00:00,63.9,61.8,30.13,SE,136,0.0,0.0,93,0.00,,,0.00,Wunderground v.1.15,2013-06-25 05:00:00,
2013-06-25 01:10:00,63.7,61.6,30.13,SE,136,0.0,0.0,93,0.00,,,0.00,Wunderground v.1.15,2013-06-25 05:10:00,
2013-06-25 01:15:00,63.6,61.5,30.13,SE,136,0.0,0.0,93,0.00,,,0.00,Wunderground v.1.15,2013-06-25 05:15:00,
2013-06-25 01:20:00,63.5,61.4,30.13,SE,136,0.0,0.0,93,0.00,,,0.00,Wunderground v.1.15,2013-06-25 05:20:00,
2013-06-25 01:25:00,63.4,61.3,30.13,SE,136,0.0,0.0,93,0.00,,,0.00,Wunderground v.1.15,2013-06-25 05:25:00,
2013-06-25 01:30:00,63.3,61.2,30.13,SE,136,0.0,0.0,93,0.00,,,0.00,Wunderground v.1.15,2013-06-25 05:30:00,
2013-06-25 01:40:00,63.2,61.1,30.13,SE,136,0.0,0.0,93,0.00,,,0.00,Wunderground v.1.15,2013-06-25 05:40:00,
2013-06-25 01:45:00,63.1,61.0,30.13,SE,136,0.0,0.0,93,0.00,,,0.00,Wunderground v.1.15,2013-06-25 05:45:00,
2013-06-25 01:50:00,63.1,61.0,30.13,SE,136,0.0,0.0,93,0.00,,,0.00,Wunderground v.1.15,2013-06-25 05:50:00,
2013-06-25 01:55:00,63.0,60.9,30.13,SE,136,0.0,0.0,93,0.00,,,0.00,Wunderground v.1.15,2013-06-25 05:55:00,
2013-06-25 02:00:00,62.9,60.8,30.13,SE,136,0.0,0.0,93,0.00,,,0.00,Wunderground v.1.15,2013-06-25 06:00:00,
2013-06-25 02:10:00,62.7,60.9,30.12,SE,136,0.0,0.0,94,0.00,,,0.00,Wunderground v.1.15,2013-06-25 06:10:00,
2013-06-25 02:20:00,62.6,60.8,30.12,SE,136,0.0,0.0,94,0.00,,,0.00,Wunderground v.1.15,2013-06-25 06:20:00,
2013-06-25 02:25:00,62.6,60.8,30.12,SE,136,0.0,0.0,94,0.00,,,0.00,Wunderground v.1.15,2013-06-25 06:25:00,
2013-06-25 02:30:00,62.5,60.7,30.12,SE,136,0.0,0.0,94,0.00,,,0.00,Wunderground v.1.15,2013-06-25 06:30:00,
2013-06-25 02:35:00,62.5,60.7,30.12,SE,136,0.0,0.0,94,0.00,,,0.00,Wunderground v.1.15,2013-06-25 06:35:00,
2013-06-25 02:40:00,62.4,60.7,30.12,SE,136,0.0,0.0,94,0.00,,,0.00,Wunderground v.1.15,2013-06-25 06:40:00,
2013-06-25 02:45:00,62.5,60.7,30.12,SE,136,0.0,0.0,94,0.00,,,0.00,Wunderground v.1.15,2013-06-25 06:45:00,
2013-06-25 02:55:00,62.8,61.0,30.12,SE,136,0.0,0.0,94,0.00,,,0.00,Wunderground v.1.15,2013-06-25 06:55:00,
2013-06-25 03:00:00,62.9,61.1,30.12,SE,136,0.0,0.0,94,0.00,,,0.00,Wunderground v.1.15,2013-06-25 07:00:00,
2013-06-25 03:10:00,63.2,61.4,30.12,SE,136,0.0,0.0,94,0.00,,,0.00,Wunderground v.1.15,2013-06-25 07:10:00,
2013-06-25 03:15:00,63.2,61.4,30.12,SE,136,0.0,0.0,94,0.00,,,0.00,Wunderground v.1.15,2013-06-25 07:15:00,
2013-06-25 03:20:00,63.3,61.5,30.12,SE,136,0.0,0.0,94,0.00,,,0.00,Wunderground v.1.15,2013-06-25 07:20:00,
2013-06-25 03:25:00,63.3,61.5,30.12,SE,136,0.0,0.0,94,0.00,,,0.00,Wunderground v.1.15,2013-06-25 07:25:00,
2013-06-25 03:30:00,63.4,61.6,30.12,SE,136,0.0,0.0,94,0.00,,,0.00,Wunderground v.1.15,2013-06-25 07:30:00,
2013-06-25 03:40:00,63.3,61.5,30.11,SE,136,0.0,0.0,94,0.00,,,0.00,Wunderground v.1.15,2013-06-25 07:40:00,
2013-06-25 03:45:00,63.2,61.4,30.11,SE,136,0.0,0.0,94,0.00,,,0.00,Wunderground v.1.15,2013-06-25 07:45:00,
2013-06-25 03:50:00,63.1,61.3,30.11,SE,136,0.0,0.0,94,0.00,,,0.00,Wunderground v.1.15,2013-06-25 07:50:00,
2013-06-25 03:55:00,63.1,61.3,30.11,SE,136,0.0,0.0,94,0.00,,,0.00,Wunderground v.1.15,2013-06-25 07:55:00,
2013-06-25 04:05:00,63.0,61.2,30.11,SE,136,0.0,0.0,94,0.00,,,0.00,Wunderground v.1.15,2013-06-25 08:05:00,
2013-06-25 04:10:00,62.9,61.1,30.11,SE,136,0.0,0.0,94,0.00,,,0.00,Wunderground v.1.15,2013-06-25 08:10:00,
2013-06-25 04:15:00,62.9,61.1,30.10,SE,136,0.0,0.0,94,0.00,,,0.00,Wunderground v.1.15,2013-06-25 08:15:00,
2013-06-25 04:25:00,62.7,60.9,30.10,SE,136,0.0,0.0,94,0.00,,,0.00,Wunderground v.1.15,2013-06-25 08:25:00,
2013-06-25 04:30:00,62.7,60.9,30.10,SE,136,0.0,0.0,94,0.00,,,0.00,Wunderground v.1.15,2013-06-25 08:30:00,
2013-06-25 04:35:00,62.7,60.9,30.10,SE,136,0.0,0.0,94,0.00,,,0.00,Wunderground v.1.15,2013-06-25 08:35:00,
2013-06-25 04:40:00,62.7,60.9,30.10,SE,136,0.0,0.0,94,0.00,,,0.00,Wunderground v.1.15,2013-06-25 08:40:00,
2013-06-25 04:45:00,62.7,60.9,30.10,SE,136,0.0,0.0,94,0.00,,,0.00,Wunderground v.1.15,2013-06-25 08:45:00,
2013-06-25 04:55:00,62.7,60.9,30.09,SE,136,0.0,0.0,94,0.00,,,0.00,Wunderground v.1.15,2013-06-25 08:55:00,
2013-06-25 05:00:00,62.8,61.3,30.09,SE,136,0.0,0.0,95,0.00,,,0.00,Wunderground v.1.15,2013-06-25 09:00:00,
2013-06-25 05:10:00,62.9,61.4,30.09,SE,136,0.0,0.0,95,0.00,,,0.00,Wunderground v.1.15,2013-06-25 09:10:00,
2013-06-25 05:15:00,63.0,61.5,30.10,SE,136,0.0,0.0,95,0.00,,,0.00,Wunderground v.1.15,2013-06-25 09:15:00,
2013-06-25 05:25:00,63.1,61.6,30.10,SE,136,0.0,0.0,95,0.00,,,0.00,Wunderground v.1.15,2013-06-25 09:25:00,
2013-06-25 05:30:00,63.1,61.6,30.09,SE,136,0.0,0.0,95,0.00,,,0.00,Wunderground v.1.15,2013-06-25 09:30:00,
2013-06-25 05:40:00,63.2,61.7,30.10,SE,136,0.0,0.0,95,0.00,,,0.00,Wunderground v.1.15,2013-06-25 09:40:00,
2013-06-25 05:45:00,63.2,61.7,30.11,SE,136,0.0,0.0,95,0.00,,,0.00,Wunderground v.1.15,2013-06-25 09:45:00,
2013-06-25 05:55:00,63.3,61.8,30.11,SE,136,0.0,0.0,95,0.00,,,0.00,Wunderground v.1.15,2013-06-25 09:55:00,
2013-06-25 06:00:00,63.3,61.8,30.11,SE,136,0.0,0.0,95,0.00,,,0.00,Wunderground v.1.15,2013-06-25 10:00:00,
2013-06-25 06:10:00,63.2,61.7,30.12,SE,136,0.0,0.0,95,0.00,,,0.00,Wunderground v.1.15,2013-06-25 10:10:00,
2013-06-25 06:15:00,63.2,61.7,30.12,SE,136,0.0,0.0,95,0.00,,,0.00,Wunderground v.1.15,2013-06-25 10:15:00,
2013-06-25 06:25:00,63.2,61.7,30.12,SE,136,0.0,0.0,95,0.00,,,0.00,Wunderground v.1.15,2013-06-25 10:25:00,
2013-06-25 06:35:00,63.3,61.8,30.12,SE,136,0.0,0.0,95,0.00,,,0.00,Wunderground v.1.15,2013-06-25 10:35:00,
2013-06-25 06:40:00,63.3,61.8,30.12,SE,136,0.0,0.0,95,0.00,,,0.00,Wunderground v.1.15,2013-06-25 10:40:00,
2013-06-25 06:45:00,63.4,61.9,30.12,SE,136,0.0,0.0,95,0.00,,,0.00,Wunderground v.1.15,2013-06-25 10:45:00,
2013-06-25 06:55:00,63.4,61.9,30.13,SE,136,0.0,0.0,95,0.00,,,0.00,Wunderground v.1.15,2013-06-25 10:55:00,
2013-06-25 07:00:00,63.5,62.0,30.13,SE,136,0.0,0.0,95,0.00,,,0.00,Wunderground v.1.15,2013-06-25 11:00:00,
2013-06-25 07:10:00,63.5,62.0,30.13,SE,136,0.0,0.0,95,0.00,,,0.00,Wunderground v.1.15,2013-06-25 11:10:00,
2013-06-25 07:15:00,63.6,62.1,30.13,SE,136,0.0,0.0,95,0.00,,,0.00,Wunderground v.1.15,2013-06-25 11:15:00,
2013-06-25 07:25:00,63.8,62.3,30.13,SE,136,0.0,0.0,95,0.00,,,0.00,Wunderground v.1.15,2013-06-25 11:25:00,
2013-06-25 07:30:00,63.9,62.4,30.14,SE,136,0.0,0.0,95,0.00,,,0.00,Wunderground v.1.15,2013-06-25 11:30:00,
2013-06-25 07:35:00,64.0,62.5,30.13,SE,136,0.0,0.0,95,0.00,,,0.00,Wunderground v.1.15,2013-06-25 11:35:00,
2013-06-25 07:40:00,64.2,62.7,30.14,SE,136,0.0,0.0,95,0.00,,,0.00,Wunderground v.1.15,2013-06-25 11:40:00,
2013-06-25 07:45:00,64.3,62.8,30.14,SE,136,0.0,0.0,95,0.00,,,0.00,Wunderground v.1.15,2013-06-25 11:45:00,
2013-06-25 07:55:00,64.7,63.2,30.14,SE,136,0.0,0.0,95,0.00,,,0.00,Wunderground v.1.15,2013-06-25 11:55:00,
2013-06-25 08:00:00,64.9,63.4,30.14,SE,136,0.0,0.0,95,0.00,,,0.00,Wunderground v.1.15,2013-06-25 12:00:00,
2013-06-25 08:10:00,65.6,64.1,30.14,SE,136,0.0,0.0,95,0.00,,,0.00,Wunderground v.1.15,2013-06-25 12:10:00,
2013-06-25 08:15:00,66.0,64.5,30.14,SE,136,0.0,0.0,95,0.00,,,0.00,Wunderground v.1.15,2013-06-25 12:15:00,
2013-06-25 08:20:00,66.4,64.9,30.14,SE,136,0.0,0.0,95,0.00,,,0.00,Wunderground v.1.15,2013-06-25 12:20:00,
2013-06-25 08:25:00,66.6,65.1,30.14,SE,136,0.0,0.0,95,0.00,,,0.00,Wunderground v.1.15,2013-06-25 12:25:00,
2013-06-25 08:30:00,66.9,65.4,30.14,SE,136,0.0,0.0,95,0.00,,,0.00,Wunderground v.1.15,2013-06-25 12:30:00,
2013-06-25 08:40:00,67.4,65.9,30.14,SE,136,0.0,0.0,95,0.00,,,0.00,Wunderground v.1.15,2013-06-25 12:40:00,
2013-06-25 08:45:00,67.5,66.0,30.14,SE,136,0.0,0.0,95,0.00,,,0.00,Wunderground v.1.15,2013-06-25 12:45:00,
2013-06-25 08:55:00,67.9,66.1,30.15,SE,136,0.0,0.0,94,0.00,,,0.00,Wunderground v.1.15,2013-06-25 12:55:00,
2013-06-25 09:05:00,68.3,66.5,30.15,SE,136,0.0,0.0,94,0.00,,,0.00,Wunderground v.1.15,2013-06-25 13:05:00,
2013-06-25 09:10:00,68.6,66.8,30.15,SE,136,0.0,0.0,94,0.00,,,0.00,Wunderground v.1.15,2013-06-25 13:10:00,
2013-06-25 09:15:00,68.8,66.7,30.15,SE,136,0.0,0.0,93,0.00,,,0.00,Wunderground v.1.15,2013-06-25 13:15:00,
2013-06-25 09:25:00,69.0,66.9,30.15,SE,136,0.0,0.0,93,0.00,,,0.00,Wunderground v.1.15,2013-06-25 13:25:00,
2013-06-25 09:35:00,69.4,67.0,30.15,SE,136,0.0,0.0,92,0.00,,,0.00,Wunderground v.1.15,2013-06-25 13:35:00,
2013-06-25 09:40:00,69.5,67.1,30.15,SE,136,0.0,0.0,92,0.00,,,0.00,Wunderground v.1.15,2013-06-25 13:40:00,
2013-06-25 09:45:00,69.7,67.3,30.15,SE,136,0.0,0.0,92,0.00,,,0.00,Wunderground v.1.15,2013-06-25 13:45:00,
2013-06-25 09:55:00,70.3,67.5,30.15,SE,136,0.0,1.0,91,0.00,,,0.00,Wunderground v.1.15,2013-06-25 13:55:00,
2013-06-25 10:00:00,70.6,67.5,30.15,SE,136,0.0,0.0,90,0.00,,,0.00,Wunderground v.1.15,2013-06-25 14:00:00,
2013-06-25 10:10:00,71.3,67.9,30.15,SE,136,0.0,2.0,89,0.00,,,0.00,Wunderground v.1.15,2013-06-25 14:10:00,
2013-06-25 10:15:00,71.6,67.9,30.15,SE,136,0.0,2.0,88,0.00,,,0.00,Wunderground v.1.15,2013-06-25 14:15:00,
2013-06-25 10:20:00,72.0,68.6,30.15,SE,136,0.0,0.0,89,0.00,,,0.00,Wunderground v.1.15,2013-06-25 14:20:00,
2013-06-25 10:25:00,72.4,69.0,30.14,SE,136,0.0,0.0,89,0.00,,,0.00,Wunderground v.1.15,2013-06-25 14:25:00,
2013-06-25 10:30:00,72.7,68.9,30.14,SE,136,0.0,1.0,88,0.00,,,0.00,Wunderground v.1.15,2013-06-25 14:30:00,
2013-06-25 10:40:00,73.1,68.7,30.15,SE,136,0.0,0.0,86,0.00,,,0.00,Wunderground v.1.15,2013-06-25 14:40:00,
2013-06-25 10:45:00,73.1,69.0,30.14,SE,136,0.0,0.0,87,0.00,,,0.00,Wunderground v.1.15,2013-06-25 14:45:00,
2013-06-25 10:55:00,72.5,68.4,30.14,SE,136,0.0,0.0,87,0.00,,,0.00,Wunderground v.1.15,2013-06-25 14:55:00,
2013-06-25 11:00:00,72.4,68.6,30.14,NE,53,0.0,1.0,88,0.00,,,0.00,Wunderground v.1.15,2013-06-25 15:00:00,
2013-06-25 11:05:00,72.6,69.2,30.14,NE,53,0.0,1.0,89,0.22,,,0.02,Wunderground v.1.15,2013-06-25 15:05:00,
2013-06-25 11:10:00,72.6,69.5,30.14,NE,53,0.0,0.0,90,0.09,,,0.02,Wunderground v.1.15,2013-06-25 15:10:00,
2013-06-25 11:15:00,72.7,69.6,30.14,NE,53,0.0,0.0,90,0.05,,,0.02,Wunderground v.1.15,2013-06-25 15:15:00,
2013-06-25 11:25:00,72.5,69.4,30.14,NE,53,0.0,0.0,90,0.00,,,0.02,Wunderground v.1.15,2013-06-25 15:25:00,
2013-06-25 11:30:00,72.5,69.7,30.14,NE,53,0.0,0.0,91,0.00,,,0.02,Wunderground v.1.15,2013-06-25 15:30:00,
2013-06-25 11:35:00,72.4,69.6,30.14,NE,53,0.0,0.0,91,0.00,,,0.02,Wunderground v.1.15,2013-06-25 15:35:00,
2013-06-25 11:40:00,72.4,69.6,30.14,NE,53,0.0,0.0,91,0.00,,,0.02,Wunderground v.1.15,2013-06-25 15:40:00,
2013-06-25 11:50:00,72.4,69.9,30.14,NE,53,0.0,0.0,92,0.00,,,0.02,Wunderground v.1.15,2013-06-25 15:50:00,
2013-06-25 11:55:00,72.4,69.6,30.14,NE,53,0.0,0.0,91,0.00,,,0.02,Wunderground v.1.15,2013-06-25 15:55:00,
2013-06-25 12:00:00,72.6,70.1,30.13,NE,53,0.0,0.0,92,0.00,,,0.02,Wunderground v.1.15,2013-06-25 16:00:00,
2013-06-25 12:05:00,72.8,70.3,30.13,NE,53,0.0,0.0,92,0.00,,,0.02,Wunderground v.1.15,2013-06-25 16:05:00,
2013-06-25 12:10:00,73.0,70.5,30.13,NE,53,0.0,0.0,92,0.00,,,0.02,Wunderground v.1.15,2013-06-25 16:10:00,
2013-06-25 12:20:00,73.8,71.3,30.13,NE,53,0.0,0.0,92,0.00,,,0.02,Wunderground v.1.15,2013-06-25 16:20:00,
2013-06-25 12:25:00,74.1,71.3,30.13,NW,319,0.0,0.0,91,0.00,,,0.02,Wunderground v.1.15,2013-06-25 16:25:00,
2013-06-25 12:30:00,74.6,71.1,30.12,West,276,0.0,2.0,89,0.00,,,0.02,Wunderground v.1.15,2013-06-25 16:30:00,
2013-06-25 12:40:00,76.6,72.8,30.12,West,275,0.0,0.0,88,0.00,,,0.02,Wunderground v.1.15,2013-06-25 16:40:00,
2013-06-25 12:45:00,77.1,70.5,30.12,SSE,154,1.0,1.0,80,0.00,,,0.02,Wunderground v.1.15,2013-06-25 16:45:00,
2013-06-25 12:50:00,77.5,71.2,30.11,West,263,2.0,2.0,81,0.00,,,0.02,Wunderground v.1.15,2013-06-25 16:50:00,
2013-06-25 12:55:00,78.1,72.5,30.11,SW,236,1.0,2.0,83,0.00,,,0.02,Wunderground v.1.15,2013-06-25 16:55:00,
2013-06-25 13:05:00,79.1,73.1,30.11,NW,309,1.0,1.0,82,0.00,,,0.02,Wunderground v.1.15,2013-06-25 17:05:00,
2013-06-25 13:15:00,79.1,72.8,30.10,WNW,298,0.0,1.0,81,0.00,,,0.02,Wunderground v.1.15,2013-06-25 17:15:00,
2013-06-25 13:25:00,77.9,72.7,30.10,WNW,298,0.0,0.0,84,0.00,,,0.02,Wunderground v.1.15,2013-06-25 17:25:00,
2013-06-25 13:30:00,78.0,72.4,30.09,WNW,298,0.0,0.0,83,0.00,,,0.02,Wunderground v.1.15,2013-06-25 17:30:00,
2013-06-25 13:35:00,78.3,71.6,30.09,WNW,298,0.0,0.0,80,0.00,,,0.02,Wunderground v.1.15,2013-06-25 17:35:00,
2013-06-25 13:40:00,78.5,72.2,30.09,WNW,284,1.0,2.0,81,0.00,,,0.02,Wunderground v.1.15,2013-06-25 17:40:00,
2013-06-25 13:45:00,78.4,72.4,30.09,WNW,283,1.0,2.0,82,0.00,,,0.02,Wunderground v.1.15,2013-06-25 17:45:00,
2013-06-25 13:55:00,77.7,72.5,30.09,WNW,283,0.0,1.0,84,0.00,,,0.02,Wunderground v.1.15,2013-06-25 17:55:00,
2013-06-25 14:00:00,77.4,71.5,30.09,WSW,238,0.0,0.0,82,0.00,,,0.02,Wunderground v.1.15,2013-06-25 18:00:00,
2013-06-25 14:10:00,77.5,71.6,30.09,WNW,299,1.0,1.0,82,0.00,,,0.03,Wunderground v.1.15,2013-06-25 18:10:00,
2013-06-25 14:15:00,77.4,72.2,30.09,WNW,299,1.0,1.0,84,0.00,,,0.03,Wunderground v.1.15,2013-06-25 18:15:00,
2013-06-25 14:20:00,77.3,72.4,30.08,WNW,299,0.0,0.0,85,0.00,,,0.03,Wunderground v.1.15,2013-06-25 18:20:00,
2013-06-25 14:25:00,77.3,72.1,30.08,WNW,299,0.0,0.0,84,0.00,,,0.03,Wunderground v.1.15,2013-06-25 18:25:00,
2013-06-25 14:30:00,77.3,72.1,30.07,WNW,299,0.0,0.0,84,0.00,,,0.03,Wunderground v.1.15,2013-06-25 18:30:00,
2013-06-25 14:40:00,77.2,71.6,30.08,WSW,254,0.0,3.0,83,0.00,,,0.03,Wunderground v.1.15,2013-06-25 18:40:00,
2013-06-25 14:45:00,77.0,70.0,30.08,West,259,1.0,3.0,79,0.00,,,0.03,Wunderground v.1.15,2013-06-25 18:45:00,
2013-06-25 14:50:00,76.4,70.5,30.08,WNW,289,2.0,5.0,82,0.00,,,0.03,Wunderground v.1.15,2013-06-25 18:50:00,
2013-06-25 14:55:00,75.2,69.7,30.08,West,271,2.0,5.0,83,0.00,,,0.04,Wunderground v.1.15,2013-06-25 18:55:00,
2013-06-25 15:00:00,73.7,68.2,30.09,West,277,3.0,3.0,83,0.31,,,0.06,Wunderground v.1.15,2013-06-25 19:00:00,
2013-06-25 15:10:00,72.1,68.0,30.08,WNW,293,1.0,1.0,87,0.18,,,0.09,Wunderground v.1.15,2013-06-25 19:10:00,
2013-06-25 15:15:00,71.3,67.6,30.08,West,263,0.0,1.0,88,0.14,,,0.10,Wunderground v.1.15,2013-06-25 19:15:00,
2013-06-25 15:20:00,70.9,67.5,30.09,West,263,0.0,0.0,89,0.06,,,0.10,Wunderground v.1.15,2013-06-25 19:20:00,
2013-06-25 15:25:00,71.1,68.0,30.09,West,263,0.0,0.0,90,0.04,,,0.10,Wunderground v.1.15,2013-06-25 19:25:00,
2013-06-25 15:35:00,71.6,68.8,30.08,West,263,0.0,0.0,91,0.00,,,0.10,Wunderground v.1.15,2013-06-25 19:35:00,
2013-06-25 15:40:00,72.2,69.7,30.08,West,263,0.0,0.0,92,0.00,,,0.10,Wunderground v.1.15,2013-06-25 19:40:00,
2013-06-25 15:45:00,73.1,70.6,30.08,West,263,0.0,0.0,92,0.00,,,0.10,Wunderground v.1.15,2013-06-25 19:45:00,
2013-06-25 15:55:00,75.2,72.7,30.08,ESE,111,0.0,1.0,92,0.00,,,0.10,Wunderground v.1.15,2013-06-25 19:55:00,
2013-06-25 16:00:00,76.2,73.4,30.07,SSE,152,0.0,0.0,91,0.00,,,0.10,Wunderground v.1.15,2013-06-25 20:00:00,
2013-06-25 16:05:00,77.2,73.7,30.07,NNW,340,0.0,2.0,89,0.00,,,0.10,Wunderground v.1.15,2013-06-25 20:05:00,
2013-06-25 16:10:00,78.4,74.5,30.07,West,270,0.0,2.0,88,0.00,,,0.10,Wunderground v.1.15,2013-06-25 20:10:00,
2013-06-25 16:15:00,79.1,74.2,30.07,WSW,240,1.0,2.0,85,0.00,,,0.10,Wunderground v.1.15,2013-06-25 20:15:00,
2013-06-25 16:25:00,77.6,72.0,30.07,WSW,241,0.0,1.0,83,0.00,,,0.10,Wunderground v.1.15,2013-06-25 20:25:00,
2013-06-25 16:30:00,76.9,72.4,30.07,WSW,240,0.0,0.0,86,0.00,,,0.10,Wunderground v.1.15,2013-06-25 20:30:00,
2013-06-25 16:40:00,76.4,72.6,30.06,WSW,240,0.0,0.0,88,0.00,,,0.10,Wunderground v.1.15,2013-06-25 20:40:00,
2013-06-25 16:45:00,77.0,73.2,30.06,WSW,240,0.0,1.0,88,0.00,,,0.10,Wunderground v.1.15,2013-06-25 20:45:00,
2013-06-25 16:55:00,78.5,73.3,30.05,South,174,1.0,1.0,84,0.00,,,0.10,Wunderground v.1.15,2013-06-25 20:55:00,
2013-06-25 17:00:00,78.8,73.2,30.04,South,174,0.0,0.0,83,0.00,,,0.10,Wunderground v.1.15,2013-06-25 21:00:00,
2013-06-25 17:10:00,79.7,74.4,30.04,WSW,243,1.0,1.0,84,0.00,,,0.10,Wunderground v.1.15,2013-06-25 21:10:00,
2013-06-25 17:15:00,80.0,74.4,30.04,SW,232,0.0,1.0,83,0.00,,,0.10,Wunderground v.1.15,2013-06-25 21:15:00,
2013-06-25 17:25:00,79.4,72.7,30.03,SSW,213,1.0,1.0,80,0.00,,,0.10,Wunderground v.1.15,2013-06-25 21:25:00,
2013-06-25 17:30:00,79.2,72.1,30.03,East,100,1.0,1.0,79,0.00,,,0.10,Wunderground v.1.15,2013-06-25 21:30:00,
2013-06-25 17:35:00,79.2,73.6,30.02,ESE,121,1.0,1.0,83,0.00,,,0.10,Wunderground v.1.15,2013-06-25 21:35:00,
2013-06-25 17:40:00,78.9,73.3,30.02,ESE,121,1.0,1.0,83,0.00,,,0.10,Wunderground v.1.15,2013-06-25 21:40:00,
2013-06-25 17:50:00,78.7,73.1,30.02,ESE,121,0.0,1.0,83,0.00,,,0.10,Wunderground v.1.15,2013-06-25 21:50:00,
2013-06-25 17:55:00,78.2,72.6,30.02,ESE,121,0.0,1.0,83,0.00,,,0.10,Wunderground v.1.15,2013-06-25 21:55:00,
2013-06-25 18:05:00,77.5,72.3,30.01,ESE,121,0.0,0.0,84,0.00,,,0.10,Wunderground v.1.15,2013-06-25 22:05:00,
2013-06-25 18:10:00,77.3,72.4,30.01,ESE,121,0.0,0.0,85,0.00,,,0.10,Wunderground v.1.15,2013-06-25 22:10:00,
2013-06-25 18:15:00,77.3,72.4,30.01,SE,140,0.0,0.0,85,0.00,,,0.10,Wunderground v.1.15,2013-06-25 22:15:00,
2013-06-25 18:20:00,77.2,72.3,30.01,SE,140,0.0,0.0,85,0.00,,,0.10,Wunderground v.1.15,2013-06-25 22:20:00,
2013-06-25 18:25:00,77.0,71.8,30.00,SE,140,0.0,0.0,84,0.00,,,0.10,Wunderground v.1.15,2013-06-25 22:25:00,
2013-06-25 18:30:00,76.8,71.2,30.00,SE,140,0.0,0.0,83,0.00,,,0.10,Wunderground v.1.15,2013-06-25 22:30:00,
2013-06-25 18:40:00,76.6,71.4,30.00,SE,140,0.0,0.0,84,0.00,,,0.10,Wunderground v.1.15,2013-06-25 22:40:00,
2013-06-25 18:45:00,76.4,71.9,30.00,SE,140,0.0,0.0,86,0.00,,,0.10,Wunderground v.1.15,2013-06-25 22:45:00,
2013-06-25 18:55:00,76.2,71.7,30.00,SE,140,0.0,0.0,86,0.00,,,0.10,Wunderground v.1.15,2013-06-25 22:55:00,
2013-06-25 19:00:00,76.0,71.8,30.00,SE,140,0.0,0.0,87,0.00,,,0.10,Wunderground v.1.15,2013-06-25 23:00:00,
2013-06-25 19:10:00,75.5,71.4,30.00,SE,140,0.0,0.0,87,0.00,,,0.10,Wunderground v.1.15,2013-06-25 23:10:00,
2013-06-25 19:15:00,75.2,71.1,30.00,SE,140,0.0,0.0,87,0.00,,,0.10,Wunderground v.1.15,2013-06-25 23:15:00,
2013-06-25 19:25:00,74.5,70.0,30.00,SE,140,0.0,0.0,86,0.00,,,0.10,Wunderground v.1.15,2013-06-25 23:25:00,
2013-06-25 19:30:00,74.4,70.3,30.00,SE,140,0.0,0.0,87,0.00,,,0.10,Wunderground v.1.15,2013-06-25 23:30:00,
2013-06-25 19:40:00,74.2,70.1,30.01,SE,140,0.0,0.0,87,0.00,,,0.10,Wunderground v.1.15,2013-06-25 23:40:00,
2013-06-25 19:45:00,74.1,70.0,30.01,SE,140,0.0,0.0,87,0.00,,,0.10,Wunderground v.1.15,2013-06-25 23:45:00,
2013-06-25 19:50:00,74.1,70.3,30.01,SE,140,0.0,0.0,88,0.00,,,0.10,Wunderground v.1.15,2013-06-25 23:50:00,
2013-06-25 19:55:00,74.1,70.3,30.01,SE,140,0.0,0.0,88,0.00,,,0.10,Wunderground v.1.15,2013-06-25 23:55:00,
2013-06-25 20:00:00,74.2,70.4,30.01,SE,140,0.0,0.0,88,0.00,,,0.10,Wunderground v.1.15,2013-06-26 00:00:00,
2013-06-25 20:10:00,74.5,71.0,30.02,SE,140,0.0,0.0,89,0.00,,,0.10,Wunderground v.1.15,2013-06-26 00:10:00,
2013-06-25 20:15:00,74.6,70.8,30.02,SE,140,0.0,1.0,88,0.00,,,0.10,Wunderground v.1.15,2013-06-26 00:15:00,
2013-06-25 20:20:00,74.5,70.7,30.02,SE,140,0.0,0.0,88,0.00,,,0.10,Wunderground v.1.15,2013-06-26 00:20:00,
2013-06-25 20:25:00,74.4,70.9,30.03,SE,140,0.0,0.0,89,0.00,,,0.10,Wunderground v.1.15,2013-06-26 00:25:00,
2013-06-25 20:30:00,74.2,70.7,30.03,SE,140,0.0,0.0,89,0.00,,,0.10,Wunderground v.1.15,2013-06-26 00:30:00,
2013-06-25 20:40:00,73.8,70.0,30.03,South,173,0.0,0.0,88,0.00,,,0.10,Wunderground v.1.15,2013-06-26 00:40:00,
2013-06-25 20:45:00,73.6,69.8,30.03,South,173,0.0,0.0,88,0.00,,,0.10,Wunderground v.1.15,2013-06-26 00:45:00,
2013-06-25 20:55:00,73.1,69.3,30.03,South,173,0.0,0.0,88,0.00,,,0.10,Wunderground v.1.15,2013-06-26 00:55:00,
2013-06-25 21:00:00,72.8,69.4,30.03,South,173,0.0,0.0,89,0.00,,,0.10,Wunderground v.1.15,2013-06-26 01:00:00,
2013-06-25 21:10:00,72.2,69.1,30.03,South,173,0.0,0.0,90,0.00,,,0.10,Wunderground v.1.15,2013-06-26 01:10:00,
2013-06-25 21:15:00,71.9,68.8,30.03,South,173,0.0,0.0,90,0.00,,,0.10,Wunderground v.1.15,2013-06-26 01:15:00,
2013-06-25 21:20:00,71.6,68.5,30.03,South,173,0.0,0.0,90,0.00,,,0.10,Wunderground v.1.15,2013-06-26 01:20:00,
2013-06-25 21:25:00,71.3,68.5,30.04,South,173,0.0,0.0,91,0.00,,,0.10,Wunderground v.1.15,2013-06-26 01:25:00,
2013-06-25 21:30:00,71.0,68.2,30.04,South,173,0.0,0.0,91,0.00,,,0.10,Wunderground v.1.15,2013-06-26 01:30:00,
2013-06-25 21:40:00,70.5,67.7,30.03,South,173,0.0,0.0,91,0.00,,,0.10,Wunderground v.1.15,2013-06-26 01:40:00,
2013-06-25 21:45:00,70.3,67.5,30.03,South,173,0.0,0.0,91,0.00,,,0.10,Wunderground v.1.15,2013-06-26 01:45:00,
2013-06-25 21:50:00,70.0,67.6,30.03,South,173,0.0,0.0,92,0.00,,,0.10,Wunderground v.1.15,2013-06-26 01:50:00,
2013-06-25 21:55:00,69.7,67.0,30.04,South,173,0.0,0.0,91,0.00,,,0.10,Wunderground v.1.15,2013-06-26 01:55:00,
2013-06-25 22:00:00,69.3,66.6,30.05,South,173,0.0,0.0,91,0.00,,,0.10,Wunderground v.1.15,2013-06-26 02:00:00,
2013-06-25 22:10:00,68.8,66.1,30.05,South,173,0.0,0.0,91,0.00,,,0.10,Wunderground v.1.15,2013-06-26 02:10:00,
2013-06-25 22:15:00,68.7,66.3,30.05,South,173,0.0,0.0,92,0.00,,,0.10,Wunderground v.1.15,2013-06-26 02:15:00,
2013-06-25 22:25:00,68.3,65.9,30.05,South,173,0.0,0.0,92,0.00,,,0.10,Wunderground v.1.15,2013-06-26 02:25:00,
2013-06-25 22:30:00,68.0,65.6,30.06,South,173,0.0,0.0,92,0.00,,,0.10,Wunderground v.1.15,2013-06-26 02:30:00,
2013-06-25 22:35:00,67.9,65.5,30.06,South,173,0.0,0.0,92,0.00,,,0.10,Wunderground v.1.15,2013-06-26 02:35:00,
2013-06-25 22:40:00,67.7,65.3,30.06,South,173,0.0,0.0,92,0.00,,,0.10,Wunderground v.1.15,2013-06-26 02:40:00,
2013-06-25 22:45:00,67.5,65.1,30.05,South,173,0.0,0.0,92,0.00,,,0.10,Wunderground v.1.15,2013-06-26 02:45:00,
2013-06-25 22:55:00,67.2,65.1,30.05,South,173,0.0,0.0,93,0.00,,,0.10,Wunderground v.1.15,2013-06-26 02:55:00,
2013-06-25 23:00:00,67.1,65.0,30.05,South,173,0.0,0.0,93,0.00,,,0.10,Wunderground v.1.15,2013-06-26 03:00:00,
2013-06-25 23:05:00,66.9,64.8,30.05,South,173,0.0,0.0,93,0.00,,,0.10,Wunderground v.1.15,2013-06-26 03:05:00,
2013-06-25 23:10:00,66.8,64.7,30.05,South,173,0.0,0.0,93,0.00,,,0.10,Wunderground v.1.15,2013-06-26 03:10:00,
2013-06-25 23:15:00,66.7,64.6,30.05,South,173,0.0,0.0,93,0.00,,,0.10,Wunderground v.1.15,2013-06-26 03:15:00,
2013-06-25 23:25:00,66.3,64.2,30.05,South,173,0.0,0.0,93,0.00,,,0.10,Wunderground v.1.15,2013-06-26 03:25:00,
2013-06-25 23:35:00,65.9,63.8,30.04,South,173,0.0,0.0,93,0.00,,,0.10,Wunderground v.1.15,2013-06-26 03:35:00,
2013-06-25 23:40:00,65.8,63.7,30.04,South,173,0.0,0.0,93,0.00,,,0.10,Wunderground v.1.15,2013-06-26 03:40:00,
2013-06-25 23:45:00,65.8,63.7,30.04,South,173,0.0,0.0,93,0.00,,,0.10,Wunderground v.1.15,2013-06-26 03:45:00,
2013-06-25 23:55:00,65.6,63.5,30.04,South,173,0.0,0.0,93,0.00,,,0.10,Wunderground v.1.15,2013-06-26 03:55:00,